createdAt,value
2022-09-07T00:00:58.920Z,4.82
2022-09-07T00:03:25.698Z,4.78
2022-09-07T00:05:52.663Z,4.50
2022-09-07T00:08:22.778Z,3.97
2022-09-07T00:11:01.004Z,5.03
2022-09-07T00:13:29.958Z,4.43
2022-09-07T00:15:57.274Z,5.22
2022-09-07T00:18:24.227Z,6.18
2022-09-07T00:21:05.745Z,5.75
2022-09-07T00:23:33.460Z,6.22
2022-09-07T00:26:05.805Z,6.60
2022-09-07T00:28:32.649Z,6.65
2022-09-07T00:30:59.124Z,5.97
2022-09-07T00:33:26.049Z,6.75
2022-09-07T00:35:52.604Z,5.95
2022-09-07T00:38:19.221Z,6.55
2022-09-07T00:40:45.612Z,4.82
2022-09-07T00:43:17.412Z,5.28
2022-09-07T00:45:43.863Z,5.15
2022-09-07T00:48:17.031Z,5.53
2022-09-07T00:51:05.186Z,4.85
2022-09-07T00:53:55.395Z,5.10
2022-09-07T00:56:26.462Z,4.38
2022-09-07T00:58:53.429Z,5.30
2022-09-07T01:01:20.403Z,5.05
2022-09-07T01:03:51.125Z,5.00
2022-09-07T01:08:45.679Z,4.70
2022-09-07T01:11:12.693Z,5.10
2022-09-07T01:13:41.666Z,4.68
2022-09-07T01:16:20.097Z,4.22
2022-09-07T01:18:55.430Z,4.13
2022-09-07T01:21:26.086Z,4.95
2022-09-07T01:26:57.932Z,3.90
2022-09-07T01:29:31.665Z,3.95
2022-09-07T01:32:44.280Z,4.15
2022-09-07T01:35:23.421Z,3.38
2022-09-07T01:37:57.796Z,3.50
2022-09-07T01:40:44.435Z,3.25
2022-09-07T01:43:22.412Z,3.40
2022-09-07T01:45:52.636Z,3.03
2022-09-07T01:48:21.586Z,3.28
2022-09-07T01:50:53.947Z,2.95
2022-09-07T01:53:28.905Z,3.53
2022-09-07T01:56:00.875Z,3.20
2022-09-07T01:58:27.490Z,3.72
2022-09-07T02:01:07.659Z,3.70
2022-09-07T02:03:42.672Z,3.70
2022-09-07T02:06:31.373Z,3.60
2022-09-07T02:09:22.976Z,3.92
2022-09-07T02:11:50.300Z,3.42
2022-09-07T02:14:34.335Z,3.58
2022-09-07T02:17:13.980Z,3.33
2022-09-07T02:19:59.967Z,3.33
2022-09-07T02:22:31.856Z,3.40
2022-09-07T02:25:01.577Z,3.08
2022-09-07T02:27:46.828Z,3.30
2022-09-07T02:30:14.140Z,3.55
2022-09-07T02:32:40.875Z,3.25
2022-09-07T02:35:07.926Z,3.90
2022-09-07T02:37:37.256Z,3.60
2022-09-07T02:40:05.147Z,3.08
2022-09-07T02:42:34.169Z,3.38
2022-09-07T02:45:04.290Z,3.33
2022-09-07T02:47:36.589Z,3.17
2022-09-07T02:50:31.889Z,3.40
2022-09-07T02:53:13.536Z,3.45
2022-09-07T02:55:54.868Z,3.00
2022-09-07T02:58:40.219Z,2.85
2022-09-07T03:01:06.597Z,2.90
2022-09-07T03:03:46.988Z,3.35
2022-09-07T03:06:22.767Z,3.30
2022-09-07T03:08:53.549Z,3.08
2022-09-07T03:11:20.772Z,2.97
2022-09-07T03:13:47.204Z,2.75
2022-09-07T03:16:14.950Z,2.47
2022-09-07T03:18:42.820Z,3.33
2022-09-07T03:21:10.151Z,2.67
2022-09-07T03:23:37.736Z,2.67
2022-09-07T03:26:04.518Z,2.83
2022-09-07T03:28:31.064Z,3.03
2022-09-07T03:30:57.610Z,3.10
2022-09-07T03:33:24.026Z,3.58
2022-09-07T03:35:59.771Z,3.00
2022-09-07T03:38:26.164Z,3.05
2022-09-07T03:41:04.315Z,3.10
2022-09-07T03:43:31.864Z,2.88
2022-09-07T03:46:00.290Z,2.88
2022-09-07T03:48:29.963Z,2.80
2022-09-07T03:51:08.518Z,2.92
2022-09-07T03:53:43.518Z,2.85
2022-09-07T03:56:12.625Z,3.20
2022-09-07T03:58:39.437Z,4.03
2022-09-07T04:01:10.922Z,3.38
2022-09-07T04:03:37.762Z,3.10
2022-09-07T04:06:04.628Z,3.10
2022-09-07T04:08:34.079Z,3.15
2022-09-07T04:11:02.020Z,3.35
2022-09-07T04:13:30.407Z,3.28
2022-09-07T04:15:56.896Z,2.92
2022-09-07T04:18:24.286Z,3.47
2022-09-07T04:20:51.140Z,3.28
2022-09-07T04:23:18.778Z,3.45
2022-09-07T04:25:49.578Z,3.13
2022-09-07T04:28:20.851Z,2.90
2022-09-07T04:30:47.571Z,3.40
2022-09-07T04:33:14.488Z,3.15
2022-09-07T04:35:42.202Z,3.72
2022-09-07T04:38:13.881Z,3.55
2022-09-07T04:40:40.315Z,4.00
2022-09-07T04:43:08.154Z,3.42
2022-09-07T04:45:37.515Z,3.15
2022-09-07T04:48:05.179Z,3.47
2022-09-07T04:50:32.357Z,3.53
2022-09-07T04:52:58.837Z,3.97
2022-09-07T04:55:25.312Z,3.45
2022-09-07T04:57:51.862Z,3.50
2022-09-07T05:00:18.455Z,3.40
2022-09-07T05:02:44.916Z,3.42
2022-09-07T05:05:11.424Z,3.53
2022-09-07T05:07:37.977Z,2.90
2022-09-07T05:10:04.818Z,3.67
2022-09-07T05:12:31.213Z,4.18
2022-09-07T05:14:57.661Z,3.33
2022-09-07T05:17:24.198Z,3.40
2022-09-07T05:19:50.604Z,3.42
2022-09-07T05:22:17.069Z,3.85
2022-09-07T05:24:43.501Z,3.67
2022-09-07T05:27:10.013Z,3.80
2022-09-07T05:32:22.812Z,3.72
2022-09-07T05:34:52.256Z,3.95
2022-09-07T05:37:21.943Z,3.72
2022-09-07T05:39:48.513Z,4.10
2022-09-07T05:42:14.969Z,3.85
2022-09-07T05:47:13.259Z,4.53
2022-09-07T05:49:39.977Z,4.07
2022-09-07T05:52:06.845Z,4.10
2022-09-07T05:54:33.215Z,4.20
2022-09-07T05:57:03.647Z,3.83
2022-09-07T05:59:30.215Z,4.43
2022-09-07T06:01:56.855Z,4.65
2022-09-07T06:04:23.378Z,5.03
2022-09-07T06:07:11.020Z,5.15
2022-09-07T06:12:23.202Z,5.30
2022-09-07T06:14:49.633Z,6.03
2022-09-07T06:17:21.224Z,5.80
2022-09-07T06:19:47.707Z,5.70
2022-09-07T06:22:14.086Z,5.90
2022-09-07T06:24:40.440Z,5.30
2022-09-07T06:27:07.103Z,5.70
2022-09-07T06:29:33.480Z,6.50
2022-09-07T06:34:46.377Z,5.13
2022-09-07T06:37:16.602Z,5.88
2022-09-07T06:39:43.248Z,5.90
2022-09-07T06:42:09.746Z,6.30
2022-09-07T06:44:36.901Z,5.45
2022-09-07T06:47:12.245Z,6.00
2022-09-07T06:49:38.625Z,6.97
2022-09-07T06:52:05.034Z,7.05
2022-09-07T06:57:18.071Z,7.72
2022-09-07T06:59:44.504Z,7.65
2022-09-07T07:02:14.886Z,7.75
2022-09-07T07:04:41.525Z,8.38
2022-09-07T07:07:14.473Z,8.60
2022-09-07T07:09:41.598Z,9.35
2022-09-07T07:12:09.967Z,9.02
2022-09-07T07:14:39.613Z,8.90
2022-09-07T07:17:06.505Z,9.65
2022-09-07T07:19:32.871Z,9.13
2022-09-07T07:22:14.392Z,9.27
2022-09-07T07:24:45.607Z,8.77
2022-09-07T07:27:12.120Z,9.25
2022-09-07T07:29:38.517Z,9.05
2022-09-07T07:32:05.214Z,9.75
2022-09-07T07:34:31.961Z,9.43
2022-09-07T07:36:58.538Z,9.85
2022-09-07T07:42:12.287Z,10.30
2022-09-07T07:44:38.598Z,10.50
2022-09-07T07:47:05.369Z,10.07
2022-09-07T07:49:31.966Z,10.57
2022-09-07T07:54:45.339Z,9.93
2022-09-07T07:57:12.134Z,10.82
2022-09-07T07:59:39.291Z,10.32
2022-09-07T08:02:08.552Z,10.90
2022-09-07T08:04:35.560Z,9.90
2022-09-07T08:07:09.275Z,10.65
2022-09-07T08:09:37.926Z,10.35
2022-09-07T08:12:04.293Z,10.23
2022-09-07T08:14:30.919Z,9.77
2022-09-07T08:16:58.405Z,10.32
2022-09-07T08:19:24.768Z,11.85
2022-09-07T08:21:51.081Z,11.82
2022-09-07T08:24:17.386Z,11.85
2022-09-07T08:26:43.712Z,11.93
2022-09-07T08:29:10.050Z,13.13
2022-09-07T08:31:36.483Z,13.57
2022-09-07T08:34:03.029Z,14.43
2022-09-07T08:36:31.700Z,14.00
2022-09-07T08:38:58.028Z,14.05
2022-09-07T08:41:48.798Z,14.07
2022-09-07T08:44:26.164Z,13.38
2022-09-07T08:46:57.777Z,13.13
2022-09-07T08:49:43.288Z,12.73
2022-09-07T08:52:22.285Z,12.38
2022-09-07T08:55:10.957Z,12.68
2022-09-07T08:57:43.504Z,13.55
2022-09-07T09:00:15.945Z,12.82
2022-09-07T09:02:44.242Z,12.70
2022-09-07T09:05:28.145Z,11.88
2022-09-07T09:08:10.728Z,13.50
2022-09-07T09:10:45.794Z,11.93
2022-09-07T09:13:20.704Z,12.88
2022-09-07T09:15:58.499Z,11.38
2022-09-07T09:18:33.733Z,11.68
2022-09-07T09:21:00.918Z,11.30
2022-09-07T09:23:33.609Z,11.50
2022-09-07T09:26:07.184Z,10.02
2022-09-07T09:28:33.982Z,11.50
2022-09-07T09:31:00.653Z,10.77
2022-09-07T09:33:28.869Z,11.13
2022-09-07T09:36:00.417Z,11.85
2022-09-07T09:38:40.266Z,9.73
2022-09-07T09:41:13.049Z,10.80
2022-09-07T09:43:52.001Z,10.68
2022-09-07T09:46:48.158Z,10.23
2022-09-07T09:49:18.150Z,9.32
2022-09-07T09:54:41.047Z,10.40
2022-09-07T09:57:15.294Z,10.50
2022-09-07T09:59:59.361Z,11.55
2022-09-07T10:05:34.782Z,9.20
2022-09-07T10:08:02.593Z,9.13
2022-09-07T10:10:30.350Z,8.48
2022-09-07T10:12:57.577Z,8.38
2022-09-07T10:15:33.000Z,9.50
2022-09-07T10:18:05.832Z,8.90
2022-09-07T10:20:37.978Z,8.70
2022-09-07T10:23:06.113Z,8.10
2022-09-07T10:25:44.314Z,79.70
2022-09-07T10:28:11.498Z,43.17
2022-09-07T10:30:58.119Z,57.03
2022-09-07T10:33:39.083Z,19.98
2022-09-07T10:36:14.503Z,32.65
2022-09-07T10:39:03.403Z,23.13
2022-09-07T10:42:09.755Z,63.58
2022-09-07T10:45:13.210Z,19.13
2022-09-07T10:47:58.585Z,23.85
2022-09-07T10:50:31.854Z,5.90
2022-09-07T10:53:37.074Z,5.30
2022-09-07T10:56:27.924Z,6.32
2022-09-07T10:59:26.537Z,5.35
2022-09-07T11:01:58.412Z,5.43
2022-09-07T11:04:47.899Z,5.10
2022-09-07T11:07:43.548Z,4.57
2022-09-07T11:10:23.725Z,3.47
2022-09-07T11:12:52.117Z,4.13
2022-09-07T11:15:27.288Z,3.65
2022-09-07T11:18:14.552Z,4.05
2022-09-07T11:20:46.883Z,3.55
2022-09-07T11:23:28.484Z,3.90
2022-09-07T11:26:02.328Z,3.42
2022-09-07T11:28:45.621Z,2.95
2022-09-07T11:31:22.261Z,3.05
2022-09-07T11:34:27.138Z,2.75
2022-09-07T11:37:00.987Z,3.25
2022-09-07T11:39:35.681Z,2.63
2022-09-07T11:45:16.976Z,3.10
2022-09-07T11:47:55.437Z,2.70
2022-09-07T11:50:23.673Z,2.67
2022-09-07T11:53:16.235Z,2.58
2022-09-07T11:55:47.570Z,2.83
2022-09-07T11:58:13.964Z,2.50
2022-09-07T12:00:46.363Z,2.88
2022-09-07T12:03:41.259Z,2.40
2022-09-07T12:06:31.359Z,2.25
2022-09-07T12:09:11.857Z,2.20
2022-09-07T12:12:03.108Z,3.03
2022-09-07T12:14:45.026Z,2.53
2022-09-07T12:17:14.573Z,2.30
2022-09-07T12:19:41.123Z,2.92
2022-09-07T12:22:20.659Z,2.60
2022-09-07T12:24:54.854Z,2.95
2022-09-07T12:27:22.394Z,4.10
2022-09-07T12:29:52.449Z,4.05
2022-09-07T12:32:54.962Z,4.18
2022-09-07T12:35:31.018Z,7.10
2022-09-07T12:38:21.821Z,2.92
2022-09-07T12:40:54.289Z,2.60
2022-09-07T12:43:20.565Z,2.60
2022-09-07T12:45:47.144Z,2.53
2022-09-07T12:48:16.152Z,2.75
2022-09-07T12:51:59.032Z,2.53
2022-09-07T12:54:19.168Z,2.40
2022-09-07T13:00:15.373Z,2.35
2022-09-07T13:03:00.734Z,2.40
2022-09-07T13:05:48.557Z,2.15
2022-09-07T13:08:33.526Z,2.00
2022-09-07T13:11:16.776Z,2.08
2022-09-07T13:14:05.170Z,1.98
2022-09-07T13:17:15.891Z,2.13
2022-09-07T13:19:56.884Z,1.65
2022-09-07T13:22:32.236Z,2.22
2022-09-07T13:25:18.038Z,2.00
2022-09-07T13:27:52.922Z,1.73
2022-09-07T13:30:47.080Z,1.88
2022-09-07T13:33:36.784Z,1.40
2022-09-07T13:36:05.329Z,1.83
2022-09-07T13:38:36.349Z,1.70
2022-09-07T13:41:12.873Z,1.90
2022-09-07T13:43:40.181Z,1.75
2022-09-07T13:46:22.287Z,1.70
2022-09-07T13:49:05.780Z,1.60
2022-09-07T13:51:43.068Z,1.23
2022-09-07T13:54:33.393Z,1.20
2022-09-07T13:57:25.272Z,1.10
2022-09-07T13:59:52.148Z,1.02
2022-09-07T14:02:32.151Z,1.23
2022-09-07T14:05:02.867Z,1.10
2022-09-07T14:07:30.793Z,1.20
2022-09-07T14:10:22.996Z,1.10
2022-09-07T14:12:51.058Z,0.93
2022-09-07T14:15:32.305Z,0.90
2022-09-07T14:18:30.186Z,1.10
2022-09-07T14:20:57.325Z,0.93
2022-09-07T14:23:30.191Z,0.98
2022-09-07T14:26:16.567Z,0.85
2022-09-07T14:28:45.873Z,1.10
2022-09-07T14:31:15.272Z,1.13
2022-09-07T14:33:51.104Z,1.30
2022-09-07T14:36:41.840Z,5.45
2022-09-07T14:39:07.055Z,1.90
2022-09-07T14:41:38.349Z,2.60
2022-09-07T14:44:04.847Z,1.10
2022-09-07T14:46:34.065Z,1.13
2022-09-07T14:49:04.877Z,0.93
2022-09-07T14:51:36.427Z,1.05
2022-09-07T14:54:07.696Z,1.13
2022-09-07T14:56:40.100Z,0.90
2022-09-07T14:59:26.429Z,1.02
2022-09-07T15:02:18.543Z,2.50
2022-09-07T15:04:45.909Z,1.05
2022-09-07T15:07:41.074Z,1.30
2022-09-07T15:10:23.554Z,1.20
2022-09-07T15:12:55.369Z,1.02
2022-09-07T15:15:28.899Z,1.30
2022-09-07T15:18:01.837Z,1.08
2022-09-07T15:20:34.944Z,0.80
2022-09-07T15:23:08.301Z,1.20
2022-09-07T15:25:35.305Z,1.10
2022-09-07T15:28:01.960Z,1.20
2022-09-07T15:30:28.481Z,1.23
2022-09-07T15:32:56.902Z,1.25
2022-09-07T15:35:23.719Z,1.30
2022-09-07T15:38:58.844Z,1.20
2022-09-07T15:41:21.969Z,1.00
2022-09-07T15:43:44.018Z,1.10
2022-09-07T15:46:10.874Z,1.05
2022-09-07T15:48:53.114Z,1.30
2022-09-07T15:54:12.168Z,1.48
2022-09-07T15:56:40.061Z,1.10
2022-09-07T15:59:06.811Z,1.13
2022-09-07T16:01:52.043Z,1.17
2022-09-07T16:04:23.518Z,1.10
2022-09-07T16:08:24.940Z,1.10
2022-09-07T16:10:10.763Z,1.20
2022-09-07T16:15:27.027Z,1.05
2022-09-07T16:18:38.026Z,1.08
2022-09-07T16:21:18.561Z,1.05
2022-09-07T16:23:53.735Z,2.80
2022-09-07T16:26:24.252Z,1.42
2022-09-07T16:28:54.623Z,1.00
2022-09-07T16:31:26.840Z,1.00
2022-09-07T16:33:53.886Z,1.10
2022-09-07T16:36:23.507Z,1.13
2022-09-07T16:39:00.352Z,0.98
2022-09-07T16:41:29.400Z,1.00
2022-09-07T16:43:56.270Z,1.23
2022-09-07T16:46:25.587Z,1.33
2022-09-07T16:48:52.882Z,0.93
2022-09-07T16:51:21.438Z,1.30
2022-09-07T16:53:50.206Z,1.10
2022-09-07T16:56:18.925Z,0.98
2022-09-07T16:58:50.963Z,1.05
2022-09-07T17:01:20.658Z,1.20
2022-09-07T17:03:49.504Z,1.10
2022-09-07T17:06:17.321Z,1.10
2022-09-07T17:08:44.727Z,1.23
2022-09-07T17:11:19.840Z,1.08
2022-09-07T17:13:47.619Z,1.20
2022-09-07T17:16:16.854Z,1.35
2022-09-07T17:21:33.166Z,1.20
2022-09-07T17:24:00.576Z,1.25
2022-09-07T17:26:27.444Z,1.40
2022-09-07T17:29:00.334Z,1.33
2022-09-07T17:34:22.373Z,1.60
2022-09-07T17:36:48.864Z,2.45
2022-09-07T17:39:17.751Z,3.07
2022-09-07T17:41:45.662Z,4.18
2022-09-07T17:44:12.502Z,1.95
2022-09-07T17:46:38.899Z,2.50
2022-09-07T17:49:07.815Z,1.52
2022-09-07T17:51:35.661Z,1.70
2022-09-07T17:54:09.611Z,1.75
2022-09-07T17:56:36.503Z,1.58
2022-09-07T18:01:49.832Z,1.40
2022-09-07T18:04:17.320Z,1.38
2022-09-07T18:06:44.059Z,2.03
2022-09-07T18:09:11.856Z,1.77
2022-09-07T18:11:47.104Z,1.60
2022-09-07T18:14:14.803Z,1.15
2022-09-07T18:16:42.386Z,1.65
2022-09-07T18:19:08.955Z,1.65
2022-09-07T18:21:37.269Z,1.80
2022-09-07T18:24:07.568Z,1.45
2022-09-07T18:26:38.269Z,1.40
2022-09-07T18:29:13.036Z,1.50
2022-09-07T18:31:45.839Z,1.60
2022-09-07T18:34:12.548Z,1.67
2022-09-07T18:36:43.681Z,2.08
2022-09-07T18:39:10.319Z,1.45
2022-09-07T18:41:39.229Z,1.40
2022-09-07T18:46:53.843Z,1.98
2022-09-07T18:49:20.417Z,1.33
2022-09-07T18:54:33.231Z,1.70
2022-09-07T18:57:00.690Z,1.70
2022-09-07T18:59:27.055Z,1.48
2022-09-07T19:01:54.103Z,1.60
2022-09-07T19:04:21.170Z,2.10
2022-09-07T19:06:48.166Z,1.50
2022-09-07T19:09:14.792Z,1.60
2022-09-07T19:11:42.438Z,1.55
2022-09-07T19:14:09.402Z,1.70
2022-09-07T19:16:36.361Z,1.50
2022-09-07T19:19:06.160Z,1.60
2022-09-07T19:21:38.869Z,2.75
2022-09-07T19:24:07.540Z,2.28
2022-09-07T19:26:36.796Z,1.92
2022-09-07T19:29:06.867Z,1.77
2022-09-07T19:31:33.316Z,4.50
2022-09-07T19:34:01.707Z,3.15
2022-09-07T19:36:30.186Z,2.50
2022-09-07T19:38:56.934Z,2.38
2022-09-07T19:41:23.679Z,1.73
2022-09-07T19:43:50.118Z,2.13
2022-09-07T19:46:22.694Z,1.75
2022-09-07T19:48:56.132Z,1.92
2022-09-07T19:51:22.718Z,1.73
2022-09-07T19:53:49.272Z,2.10
2022-09-07T19:56:24.161Z,1.73
2022-09-07T19:59:01.350Z,2.15
2022-09-07T20:01:28.479Z,1.65
2022-09-07T20:04:00.207Z,1.75
2022-09-07T20:06:27.762Z,2.28
2022-09-07T20:09:01.259Z,1.80
2022-09-07T20:11:31.129Z,2.40
2022-09-07T20:13:57.530Z,1.67
2022-09-07T20:16:25.205Z,1.80
2022-09-07T20:18:59.261Z,1.95
2022-09-07T20:21:26.253Z,2.08
2022-09-07T20:23:53.002Z,1.90
2022-09-07T20:26:21.177Z,2.13
2022-09-07T20:29:29.186Z,2.30
2022-09-07T20:31:57.876Z,2.33
2022-09-07T20:34:24.626Z,1.90
2022-09-07T20:36:51.871Z,2.00
2022-09-07T20:39:19.521Z,1.90
2022-09-07T20:41:46.521Z,2.10
2022-09-07T20:44:14.197Z,2.15
2022-09-07T20:46:40.829Z,2.08
2022-09-07T20:49:07.353Z,2.10
2022-09-07T20:51:33.794Z,2.42
2022-09-07T20:54:00.172Z,2.58
2022-09-07T20:56:28.063Z,2.70
2022-09-07T20:59:06.898Z,2.60
2022-09-07T21:01:35.118Z,3.08
2022-09-07T21:04:02.041Z,3.45
2022-09-07T21:06:32.855Z,2.30
2022-09-07T21:09:08.428Z,2.40
2022-09-07T21:11:35.686Z,3.50
2022-09-07T21:14:10.423Z,2.63
2022-09-07T21:16:36.902Z,2.10
2022-09-07T21:19:05.956Z,1.95
2022-09-07T21:21:39.264Z,2.08
2022-09-07T21:24:16.778Z,1.88
2022-09-07T21:26:43.169Z,1.90
2022-09-07T21:29:15.518Z,2.10
2022-09-07T21:31:41.990Z,1.95
2022-09-07T21:34:09.085Z,2.40
2022-09-07T21:36:36.567Z,2.10
2022-09-07T21:39:03.253Z,2.30
2022-09-07T21:41:30.398Z,2.17
2022-09-07T21:43:58.462Z,2.53
2022-09-07T21:46:26.275Z,1.88
2022-09-07T21:48:53.030Z,2.50
2022-09-07T21:51:19.643Z,1.98
2022-09-07T21:53:51.680Z,2.30
2022-09-07T21:56:18.079Z,2.10
2022-09-07T21:58:44.918Z,2.45
2022-09-07T22:01:19.227Z,2.95
2022-09-07T22:03:48.032Z,2.05
2022-09-07T22:06:15.192Z,1.95
2022-09-07T22:08:42.870Z,2.05
2022-09-07T22:11:13.267Z,2.03
2022-09-07T22:13:40.389Z,2.55
2022-09-07T22:16:07.364Z,2.10
2022-09-07T22:18:37.367Z,2.58
2022-09-07T22:21:06.230Z,2.55
2022-09-07T22:23:34.471Z,3.05
2022-09-07T22:26:01.746Z,2.88
2022-09-07T22:28:31.765Z,2.83
2022-09-07T22:31:10.397Z,3.05
2022-09-07T22:33:37.128Z,3.05
2022-09-07T22:36:15.034Z,2.70
2022-09-07T22:38:42.780Z,3.75
2022-09-07T22:41:12.192Z,2.55
2022-09-07T22:43:39.140Z,2.65
2022-09-07T22:46:06.771Z,2.08
2022-09-07T22:48:35.203Z,2.15
2022-09-07T22:51:02.795Z,2.85
2022-09-07T22:53:32.578Z,3.03
2022-09-07T22:56:00.046Z,2.45
2022-09-07T22:58:29.035Z,2.42
2022-09-07T23:01:01.504Z,2.25
2022-09-07T23:03:28.888Z,2.15
2022-09-07T23:05:55.619Z,2.70
2022-09-07T23:08:22.131Z,2.80
2022-09-07T23:10:48.763Z,2.50
2022-09-07T23:13:16.815Z,2.85
2022-09-07T23:15:43.694Z,2.70
2022-09-07T23:18:18.175Z,2.60
2022-09-07T23:20:44.896Z,3.20
2022-09-07T23:23:13.216Z,2.78
2022-09-07T23:25:41.322Z,2.97
2022-09-07T23:28:11.915Z,3.17
2022-09-07T23:33:07.431Z,3.40
2022-09-07T23:35:33.853Z,3.22
2022-09-07T23:38:00.522Z,2.97
2022-09-07T23:40:28.878Z,3.38
2022-09-07T23:42:55.222Z,2.80
2022-09-07T23:45:22.380Z,3.10
2022-09-07T23:47:48.962Z,2.58
2022-09-07T23:50:15.432Z,3.00
2022-09-07T23:52:42.011Z,2.50
2022-09-07T23:55:10.170Z,2.38
2022-09-07T23:57:37.867Z,2.50
